createdAt,value
2017-04-05T00:01:08.704Z,5.4
2017-04-05T00:02:18.957Z,5.51
2017-04-05T00:03:29.202Z,5.49
2017-04-05T00:04:39.452Z,5.43
2017-04-05T00:05:49.719Z,5.49
2017-04-05T00:06:59.977Z,5.51
2017-04-05T00:08:10.234Z,5.59
2017-04-05T00:09:20.488Z,5.52
2017-04-05T00:10:30.746Z,5.65
2017-04-05T00:11:41.003Z,5.69
2017-04-05T00:12:51.258Z,5.64
2017-04-05T00:14:01.517Z,5.79
2017-04-05T00:15:11.776Z,5.77
2017-04-05T00:16:22.035Z,5.7
2017-04-05T00:17:32.294Z,5.73
2017-04-05T00:18:42.556Z,5.73
2017-04-05T00:19:52.809Z,5.72
2017-04-05T00:21:03.063Z,5.76
2017-04-05T00:22:13.320Z,5.72
2017-04-05T00:23:23.579Z,5.8
2017-04-05T00:24:33.840Z,5.8
2017-04-05T00:25:44.092Z,5.73
2017-04-05T00:26:54.350Z,5.65
2017-04-05T00:28:04.612Z,5.69
2017-04-05T00:29:14.866Z,5.64
2017-04-05T00:30:24.805Z,5.61
2017-04-05T00:31:35.053Z,5.67
2017-04-05T00:32:45.312Z,5.67
2017-04-05T00:33:55.253Z,5.65
2017-04-05T00:35:05.515Z,5.54
2017-04-05T00:36:15.767Z,5.52
2017-04-05T00:37:26.068Z,5.61
2017-04-05T00:38:36.327Z,5.51
2017-04-05T00:39:46.584Z,5.46
2017-04-05T00:40:56.839Z,5.49
2017-04-05T00:42:07.097Z,5.46
2017-04-05T00:43:17.352Z,5.49
2017-04-05T00:44:27.600Z,5.49
2017-04-05T00:45:37.542Z,5.46
2017-04-05T00:46:47.481Z,5.55
2017-04-05T00:47:57.735Z,5.51
2017-04-05T00:49:07.993Z,5.59
2017-04-05T00:50:18.243Z,5.54
2017-04-05T00:51:28.187Z,5.54
2017-04-05T00:52:38.438Z,5.49
2017-04-05T00:53:48.373Z,5.54
2017-04-05T00:54:58.619Z,5.43
2017-04-05T00:56:08.554Z,5.46
2017-04-05T00:57:18.810Z,5.43
2017-04-05T00:58:29.066Z,5.34
2017-04-05T00:59:39.322Z,5.31
2017-04-05T01:00:49.578Z,5.26
2017-04-05T01:01:59.836Z,5.2
2017-04-05T01:03:10.093Z,5.33
2017-04-05T01:04:20.354Z,5.18
2017-04-05T01:05:30.611Z,5.2
2017-04-05T01:06:40.875Z,5.1
2017-04-05T01:07:51.129Z,5.2
2017-04-05T01:09:01.383Z,5.16
2017-04-05T01:10:11.650Z,5.18
2017-04-05T01:11:21.605Z,5.12
2017-04-05T01:12:31.857Z,5.15
2017-04-05T01:13:42.129Z,5.12
2017-04-05T01:14:52.382Z,5.08
2017-04-05T01:16:02.640Z,5
2017-04-05T01:17:12.577Z,5.01
2017-04-05T01:18:22.844Z,5.01
2017-04-05T01:19:33.097Z,5.05
2017-04-05T01:20:43.352Z,5
2017-04-05T01:21:53.604Z,5
2017-04-05T01:23:03.884Z,5
2017-04-05T01:24:14.134Z,4.97
2017-04-05T01:25:24.385Z,4.94
2017-04-05T01:26:34.641Z,4.9
2017-04-05T01:27:44.900Z,4.79
2017-04-05T01:28:55.154Z,4.79
2017-04-05T01:30:05.410Z,4.78
2017-04-05T01:31:15.678Z,4.74
2017-04-05T01:32:25.950Z,4.67
2017-04-05T01:33:36.204Z,4.61
2017-04-05T01:34:46.462Z,4.68
2017-04-05T01:35:56.726Z,4.7
2017-04-05T01:37:06.987Z,4.71
2017-04-05T01:38:17.237Z,4.68
2017-04-05T01:39:27.514Z,4.76
2017-04-05T01:40:37.769Z,4.76
2017-04-05T01:41:48.035Z,4.76
2017-04-05T01:42:58.294Z,4.83
2017-04-05T01:44:08.237Z,4.78
2017-04-05T01:45:18.182Z,4.74
2017-04-05T01:46:28.441Z,4.83
2017-04-05T01:47:38.695Z,4.76
2017-04-05T01:48:48.950Z,4.79
2017-04-05T01:49:59.206Z,4.75
2017-04-05T01:51:09.463Z,4.79
2017-04-05T01:52:19.414Z,4.78
2017-04-05T01:53:29.669Z,4.75
2017-04-05T01:54:39.608Z,4.7
2017-04-05T01:55:49.863Z,4.68
2017-04-05T01:56:59.800Z,4.66
2017-04-05T01:58:10.062Z,4.7
2017-04-05T01:59:20.311Z,4.56
2017-04-05T02:00:30.560Z,4.63
2017-04-05T02:01:40.821Z,4.5
2017-04-05T02:02:51.080Z,4.49
2017-04-05T02:04:01.333Z,4.5
2017-04-05T02:05:11.588Z,4.5
2017-04-05T02:06:21.837Z,4.5
2017-04-05T02:07:32.089Z,4.6
2017-04-05T02:08:42.349Z,4.5
2017-04-05T02:09:52.282Z,4.58
2017-04-05T02:11:02.541Z,4.58
2017-04-05T02:12:12.800Z,4.5
2017-04-05T02:13:23.054Z,4.49
2017-04-05T02:14:33.309Z,4.42
2017-04-05T02:15:43.247Z,4.5
2017-04-05T02:16:53.501Z,4.52
2017-04-05T02:18:03.754Z,4.6
2017-04-05T02:19:14.013Z,4.42
2017-04-05T02:20:24.268Z,4.53
2017-04-05T02:21:34.520Z,4.56
2017-04-05T02:22:44.455Z,4.36
2017-04-05T02:23:54.709Z,4.45
2017-04-05T02:25:04.966Z,4.43
2017-04-05T02:26:15.224Z,4.43
2017-04-05T02:27:25.472Z,4.57
2017-04-05T02:28:35.419Z,4.52
2017-04-05T02:29:45.373Z,4.43
2017-04-05T02:30:55.308Z,4.56
2017-04-05T02:32:05.566Z,4.45
2017-04-05T02:33:15.511Z,4.56
2017-04-05T02:34:25.765Z,4.5
2017-04-05T02:35:36.015Z,4.56
2017-04-05T02:36:46.272Z,4.43
2017-04-05T02:37:56.526Z,4.43
2017-04-05T02:39:06.778Z,4.48
2017-04-05T02:40:17.034Z,4.5
2017-04-05T02:41:27.293Z,4.52
2017-04-05T02:42:37.542Z,4.46
2017-04-05T02:43:47.800Z,4.4
2017-04-05T02:44:57.487Z,4.57
2017-04-05T02:46:07.740Z,4.53
2017-04-05T02:47:17.988Z,4.43
2017-04-05T02:48:28.249Z,4.52
2017-04-05T02:49:38.500Z,4.42
2017-04-05T02:50:48.454Z,4.49
2017-04-05T02:51:58.709Z,4.46
2017-04-05T02:53:08.960Z,4.39
2017-04-05T02:54:19.213Z,4.53
2017-04-05T02:55:29.469Z,4.49
2017-04-05T02:56:39.723Z,4.4
2017-04-05T02:57:49.662Z,4.42
2017-04-05T02:58:59.914Z,4.28
2017-04-05T03:00:10.170Z,4.31
2017-04-05T03:01:20.114Z,4.39
2017-04-05T03:02:30.370Z,4.34
2017-04-05T03:03:40.628Z,4.4
2017-04-05T03:04:50.883Z,4.3
2017-04-05T03:06:01.136Z,4.32
2017-04-05T03:07:11.081Z,4.25
2017-04-05T03:08:21.336Z,4.18
2017-04-05T03:09:31.589Z,4.2
2017-04-05T03:10:41.850Z,4.12
2017-04-05T03:11:52.097Z,4.14
2017-04-05T03:13:02.358Z,4.07
2017-04-05T03:14:12.611Z,4.12
2017-04-05T03:15:22.869Z,4.1
2017-04-05T03:16:33.120Z,4.06
2017-04-05T03:17:43.375Z,4.06
2017-04-05T03:18:53.625Z,3.95
2017-04-05T03:20:03.885Z,3.99
2017-04-05T03:21:14.138Z,4.02
2017-04-05T03:22:24.400Z,3.92
2017-04-05T03:23:34.653Z,3.96
2017-04-05T03:24:44.908Z,4.04
2017-04-05T03:25:55.161Z,4.03
2017-04-05T03:27:05.418Z,3.95
2017-04-05T03:28:15.670Z,3.99
2017-04-05T03:29:25.942Z,4
2017-04-05T03:30:36.198Z,3.91
2017-04-05T03:31:46.133Z,3.82
2017-04-05T03:32:56.382Z,3.76
2017-04-05T03:34:06.639Z,3.81
2017-04-05T03:35:16.898Z,3.82
2017-04-05T03:36:27.145Z,3.81
2017-04-05T03:37:37.393Z,3.73
2017-04-05T03:38:47.645Z,3.81
2017-04-05T03:39:57.898Z,3.67
2017-04-05T03:41:08.176Z,3.73
2017-04-05T03:42:18.433Z,3.77
2017-04-05T03:43:28.686Z,3.73
2017-04-05T03:44:38.936Z,3.71
2017-04-05T03:45:49.192Z,3.66
2017-04-05T03:46:59.135Z,3.61
2017-04-05T03:48:09.079Z,3.56
2017-04-05T03:49:19.016Z,3.63
2017-04-05T03:50:29.272Z,3.68
2017-04-05T03:51:39.526Z,3.61
2017-04-05T03:52:49.788Z,3.64
2017-04-05T03:54:00.038Z,3.64
2017-04-05T03:55:10.296Z,3.59
2017-04-05T03:56:20.236Z,3.56
2017-04-05T03:57:30.490Z,3.58
2017-04-05T03:58:40.429Z,3.59
2017-04-05T03:59:50.682Z,3.5
2017-04-05T04:01:00.310Z,3.55
2017-04-05T04:02:10.254Z,3.52
2017-04-05T04:03:20.507Z,3.55
2017-04-05T04:04:30.445Z,3.49
2017-04-05T04:05:40.701Z,3.58
2017-04-05T04:06:50.950Z,3.56
2017-04-05T04:08:00.890Z,3.52
2017-04-05T04:09:11.139Z,3.53
2017-04-05T04:10:21.082Z,3.43
2017-04-05T04:11:30.712Z,3.4
2017-04-05T04:12:40.971Z,3.46
2017-04-05T04:13:50.909Z,3.46
2017-04-05T04:15:01.163Z,3.33
2017-04-05T04:16:11.413Z,3.36
2017-04-05T04:17:21.352Z,3.41
2017-04-05T04:18:31.290Z,3.27
2017-04-05T04:19:41.539Z,3.36
2017-04-05T04:20:51.788Z,3.34
2017-04-05T04:22:02.039Z,3.45
2017-04-05T04:23:12.294Z,3.45
2017-04-05T04:24:22.233Z,3.33
2017-04-05T04:25:32.487Z,3.43
2017-04-05T04:26:42.741Z,3.31
2017-04-05T04:27:52.675Z,3.18
2017-04-05T04:29:02.943Z,3.26
2017-04-05T04:30:13.199Z,3.18
2017-04-05T04:31:23.465Z,3.31
2017-04-05T04:32:33.747Z,3.13
2017-04-05T04:33:44.007Z,3.24
2017-04-05T04:34:53.943Z,3.24
2017-04-05T04:36:03.882Z,3.24
2017-04-05T04:37:14.138Z,3.33
2017-04-05T04:38:24.395Z,3.19
2017-04-05T04:39:34.338Z,3.19
2017-04-05T04:40:44.593Z,3.15
2017-04-05T04:41:54.844Z,3.19
2017-04-05T04:43:05.093Z,3.18
2017-04-05T04:44:15.338Z,3.13
2017-04-05T04:45:25.590Z,3.15
2017-04-05T04:46:35.844Z,3.09
2017-04-05T04:47:46.097Z,3.09
2017-04-05T04:48:56.347Z,3.11
2017-04-05T04:50:06.596Z,3.08
2017-04-05T04:51:16.542Z,3.05
2017-04-05T04:52:26.802Z,3.05
2017-04-05T04:53:36.742Z,3.05
2017-04-05T04:54:46.996Z,3.11
2017-04-05T04:55:57.245Z,3.03
2017-04-05T04:57:07.502Z,3.15
2017-04-05T04:58:17.765Z,3.13
2017-04-05T04:59:27.714Z,3.12
2017-04-05T05:00:37.969Z,3.24
2017-04-05T05:01:47.915Z,3.15
2017-04-05T05:02:58.173Z,3.29
2017-04-05T05:04:08.432Z,3.24
2017-04-05T05:05:18.691Z,3.26
2017-04-05T05:06:28.339Z,3.43
2017-04-05T05:07:38.592Z,3.27
2017-04-05T05:08:48.539Z,3.48
2017-04-05T05:09:58.795Z,3.55
2017-04-05T05:11:09.046Z,3.56
2017-04-05T05:12:18.987Z,3.64
2017-04-05T05:13:29.252Z,3.61
2017-04-05T05:14:39.520Z,3.68
2017-04-05T05:15:49.773Z,3.55
2017-04-05T05:17:00.025Z,3.77
2017-04-05T05:18:09.975Z,3.78
2017-04-05T05:19:20.231Z,3.82
2017-04-05T05:20:30.170Z,3.74
2017-04-05T05:21:40.421Z,3.78
2017-04-05T05:22:50.705Z,3.94
2017-04-05T05:24:00.962Z,3.91
2017-04-05T05:25:11.227Z,3.94
2017-04-05T05:26:21.484Z,3.94
2017-04-05T05:27:31.736Z,4.03
2017-04-05T05:28:41.989Z,4.04
2017-04-05T05:29:52.241Z,4.06
2017-04-05T05:31:02.497Z,4.04
2017-04-05T05:32:12.755Z,4.1
2017-04-05T05:33:22.409Z,4.13
2017-04-05T05:34:32.665Z,4.16
2017-04-05T05:35:42.922Z,4.14
2017-04-05T05:36:53.174Z,4.09
2017-04-05T05:38:03.433Z,4.24
2017-04-05T05:39:13.693Z,4.22
2017-04-05T05:40:23.953Z,4.28
2017-04-05T05:41:33.894Z,4.32
2017-04-05T05:42:44.152Z,4.3
2017-04-05T05:43:54.406Z,4.3
2017-04-05T05:45:04.666Z,4.28
2017-04-05T05:46:14.924Z,4.24
2017-04-05T05:47:25.188Z,4.3
2017-04-05T05:48:35.479Z,4.3
2017-04-05T05:49:45.736Z,4.3
2017-04-05T05:50:55.989Z,4.43
2017-04-05T05:52:05.933Z,4.43
2017-04-05T05:53:16.188Z,4.42
2017-04-05T05:54:26.442Z,4.43
2017-04-05T05:55:36.697Z,4.5
2017-04-05T05:56:46.955Z,4.48
2017-04-05T05:57:57.206Z,4.43
2017-04-05T05:59:07.483Z,4.42
2017-04-05T06:00:17.426Z,4.48
2017-04-05T06:01:27.685Z,4.57
2017-04-05T06:02:37.639Z,4.56
2017-04-05T06:03:47.899Z,4.49
2017-04-05T06:04:58.157Z,4.49
2017-04-05T06:06:08.417Z,4.5
2017-04-05T06:07:18.045Z,4.56
2017-04-05T06:08:28.315Z,4.61
2017-04-05T06:09:38.572Z,4.57
2017-04-05T06:10:48.832Z,4.64
2017-04-05T06:11:59.090Z,4.64
2017-04-05T06:13:09.031Z,4.56
2017-04-05T06:14:18.345Z,4.56
2017-04-05T06:15:28.604Z,4.58
2017-04-05T06:16:38.866Z,4.49
2017-04-05T06:17:49.125Z,4.5
2017-04-05T06:18:59.382Z,4.4
2017-04-05T06:20:09.335Z,4.6
2017-04-05T06:21:19.596Z,4.38
2017-04-05T06:22:29.229Z,4.58
2017-04-05T06:23:39.484Z,4.5
2017-04-05T06:24:49.742Z,4.56
2017-04-05T06:25:59.685Z,4.45
2017-04-05T06:27:09.939Z,4.52
2017-04-05T06:28:20.194Z,4.49
2017-04-05T06:29:30.456Z,4.6
2017-04-05T06:30:40.722Z,4.68
2017-04-05T06:31:50.988Z,4.75
2017-04-05T06:33:01.266Z,4.75
2017-04-05T06:34:11.528Z,4.71
2017-04-05T06:35:21.784Z,4.75
2017-04-05T06:36:32.045Z,4.78
2017-04-05T06:37:42.297Z,4.84
2017-04-05T06:38:52.558Z,4.83
2017-04-05T06:40:02.519Z,4.83
2017-04-05T06:41:12.783Z,4.86
2017-04-05T06:42:22.726Z,4.9
2017-04-05T06:43:32.671Z,4.94
2017-04-05T06:44:42.617Z,4.98
2017-04-05T06:45:52.557Z,4.98
2017-04-05T06:47:02.819Z,5.01
2017-04-05T06:48:12.759Z,5.16
2017-04-05T06:49:22.698Z,5.2
2017-04-05T06:50:32.959Z,5.2
2017-04-05T06:51:43.222Z,5.34
2017-04-05T06:52:53.482Z,5.38
2017-04-05T06:54:03.735Z,5.49
2017-04-05T06:55:13.676Z,5.44
2017-04-05T06:56:23.936Z,5.49
2017-04-05T06:57:34.197Z,5.51
2017-04-05T06:58:44.134Z,5.61
2017-04-05T06:59:54.386Z,5.65
2017-04-05T07:01:04.017Z,5.55
2017-04-05T07:02:13.957Z,5.59
2017-04-05T07:03:24.221Z,5.65
2017-04-05T07:04:34.480Z,5.56
2017-04-05T07:05:44.440Z,5.69
2017-04-05T07:06:54.698Z,5.62
2017-04-05T07:08:04.958Z,5.65
2017-04-05T07:09:15.238Z,5.62
2017-04-05T07:10:25.496Z,5.54
2017-04-05T07:11:35.456Z,5.58
2017-04-05T07:12:45.740Z,5.58
2017-04-05T07:13:55.682Z,5.56
2017-04-05T07:15:05.935Z,5.56
2017-04-05T07:16:16.198Z,5.51
2017-04-05T07:17:26.474Z,5.49
2017-04-05T07:18:36.729Z,5.55
2017-04-05T07:19:46.993Z,5.47
2017-04-05T07:20:57.256Z,5.49
2017-04-05T07:22:07.512Z,5.49
2017-04-05T07:23:17.775Z,5.55
2017-04-05T07:24:28.034Z,5.56
2017-04-05T07:25:37.978Z,5.58
2017-04-05T07:26:47.918Z,5.54
2017-04-05T07:27:58.172Z,5.69
2017-04-05T07:29:08.483Z,5.64
2017-04-05T07:30:18.746Z,5.74
2017-04-05T07:31:29.007Z,5.8
2017-04-05T07:32:38.956Z,5.87
2017-04-05T07:33:49.258Z,5.9
2017-04-05T07:34:59.525Z,5.87
2017-04-05T07:36:09.472Z,5.97
2017-04-05T07:37:19.426Z,5.94
2017-04-05T07:38:29.690Z,6.05
2017-04-05T07:39:39.626Z,6.1
2017-04-05T07:40:49.887Z,6.13
2017-04-05T07:42:00.151Z,6.2
2017-04-05T07:43:10.410Z,6.34
2017-04-05T07:44:20.683Z,6.43
2017-04-05T07:45:30.631Z,6.47
2017-04-05T07:46:40.893Z,6.57
2017-04-05T07:47:51.151Z,6.65
2017-04-05T07:49:01.416Z,6.59
2017-04-05T07:50:11.674Z,6.72
2017-04-05T07:51:21.930Z,6.85
2017-04-05T07:52:32.188Z,6.77
2017-04-05T07:53:42.455Z,6.87
2017-04-05T07:54:52.397Z,6.93
2017-04-05T07:56:02.658Z,7.03
2017-04-05T07:57:12.915Z,7.08
2017-04-05T07:58:23.177Z,7.04
2017-04-05T07:59:33.121Z,7.05
2017-04-05T08:00:43.384Z,7.11
2017-04-05T08:01:53.641Z,7.15
2017-04-05T08:03:03.905Z,7.21
2017-04-05T08:04:14.171Z,7.13
2017-04-05T08:05:24.431Z,7.31
2017-04-05T08:06:34.695Z,7.32
2017-04-05T08:07:44.338Z,7.25
2017-04-05T08:08:54.599Z,7.15
2017-04-05T08:10:04.859Z,7.31
2017-04-05T08:11:15.122Z,7.28
2017-04-05T08:12:25.382Z,7.39
2017-04-05T08:13:35.322Z,7.37
2017-04-05T08:14:45.586Z,7.4
2017-04-05T08:15:55.852Z,7.33
2017-04-05T08:17:06.109Z,7.4
2017-04-05T08:18:16.051Z,7.39
2017-04-05T08:19:26.305Z,7.39
2017-04-05T08:20:36.258Z,7.51
2017-04-05T08:21:46.530Z,7.59
2017-04-05T08:22:56.791Z,7.59
2017-04-05T08:24:07.053Z,7.7
2017-04-05T08:25:17.002Z,7.64
2017-04-05T08:26:27.264Z,7.69
2017-04-05T08:27:37.526Z,7.81
2017-04-05T08:28:47.787Z,7.77
2017-04-05T08:29:58.050Z,7.9
2017-04-05T08:31:08.322Z,7.93
2017-04-05T08:32:18.591Z,7.88
2017-04-05T08:33:28.866Z,7.87
2017-04-05T08:34:39.130Z,7.87
2017-04-05T08:35:49.394Z,7.99
2017-04-05T08:36:59.652Z,7.93
2017-04-05T08:38:09.912Z,8.02
2017-04-05T08:39:20.176Z,8.08
2017-04-05T08:40:30.435Z,8.14
2017-04-05T08:41:40.693Z,8.18
2017-04-05T08:42:50.643Z,8.18
2017-04-05T08:44:01.153Z,8.21
2017-04-05T08:45:11.100Z,8.26
2017-04-05T08:46:21.366Z,8.39
2017-04-05T08:47:31.315Z,8.38
2017-04-05T08:48:41.581Z,8.39
2017-04-05T08:49:51.843Z,8.52
2017-04-05T08:51:02.101Z,8.52
2017-04-05T08:52:12.370Z,8.63
2017-04-05T08:53:22.635Z,8.6
2017-04-05T08:54:32.909Z,8.54
2017-04-05T08:55:42.544Z,8.42
2017-04-05T08:56:52.810Z,8.49
2017-04-05T08:58:03.106Z,8.54
2017-04-05T08:59:13.062Z,8.71
2017-04-05T09:00:23.324Z,8.77
2017-04-05T09:01:33.270Z,8.97
2017-04-05T09:02:43.530Z,9.11
2017-04-05T09:03:53.476Z,9.13
2017-04-05T09:05:03.736Z,9.18
2017-04-05T09:06:14.013Z,9.02
2017-04-05T09:07:23.967Z,8.96
2017-04-05T09:08:34.228Z,8.9
2017-04-05T09:09:44.175Z,8.82
2017-04-05T09:10:54.446Z,8.66
2017-04-05T09:12:04.707Z,8.77
2017-04-05T09:13:14.975Z,8.66
2017-04-05T09:14:24.931Z,8.69
2017-04-05T09:15:35.198Z,8.6
2017-04-05T09:16:45.465Z,8.68
2017-04-05T09:17:55.729Z,8.75
2017-04-05T09:19:05.994Z,8.78
2017-04-05T09:20:16.255Z,8.78
2017-04-05T09:21:26.203Z,8.9
2017-04-05T09:22:36.161Z,9
2017-04-05T09:23:46.421Z,9.09
2017-04-05T09:24:56.677Z,9.09
2017-04-05T09:26:06.659Z,9.3
2017-04-05T09:27:16.926Z,9.44
2017-04-05T09:28:27.185Z,9.56
2017-04-05T09:29:37.449Z,9.62
2017-04-05T09:30:47.704Z,9.64
2017-04-05T09:31:57.968Z,9.82
2017-04-05T09:33:08.229Z,9.74
2017-04-05T09:34:18.172Z,9.55
2017-04-05T09:35:28.430Z,9.52
2017-04-05T09:36:38.688Z,9.54
2017-04-05T09:37:48.951Z,9.4
2017-04-05T09:38:59.205Z,9.36
2017-04-05T09:40:09.465Z,9.42
2017-04-05T09:41:19.097Z,9.54
2017-04-05T09:42:29.363Z,9.7
2017-04-05T09:43:39.651Z,9.7
2017-04-05T09:44:49.915Z,9.88
2017-04-05T09:45:59.866Z,9.91
2017-04-05T09:47:10.125Z,10.03
2017-04-05T09:48:20.072Z,10.18
2017-04-05T09:49:30.329Z,10.17
2017-04-05T09:50:40.593Z,10.12
2017-04-05T09:51:50.849Z,10.2
2017-04-05T09:53:00.801Z,10.17
2017-04-05T09:54:11.092Z,10.05
2017-04-05T09:55:21.351Z,9.95
2017-04-05T09:56:31.297Z,9.91
2017-04-05T09:57:40.934Z,9.8
2017-04-05T09:58:51.197Z,9.81
2017-04-05T10:00:05.612Z,9.74
2017-04-05T10:01:15.560Z,9.77
2017-04-05T10:02:25.821Z,9.76
2017-04-05T10:03:36.118Z,9.8
2017-04-05T10:04:46.069Z,9.77
2017-04-05T10:05:56.334Z,9.76
2017-04-05T10:07:06.600Z,9.76
2017-04-05T10:08:16.868Z,9.72
2017-04-05T10:09:27.131Z,9.73
2017-04-05T10:10:37.398Z,9.76
2017-04-05T10:11:47.659Z,9.74
2017-04-05T10:12:57.921Z,9.73
2017-04-05T10:14:07.866Z,9.64
2017-04-05T10:15:18.142Z,9.59
2017-04-05T10:16:28.090Z,9.58
2017-04-05T10:17:38.353Z,9.69
2017-04-05T10:18:48.622Z,9.66
2017-04-05T10:19:58.881Z,9.76
2017-04-05T10:21:09.152Z,9.94
2017-04-05T10:22:19.412Z,9.94
2017-04-05T10:23:29.669Z,9.95
2017-04-05T10:24:39.931Z,10.1
2017-04-05T10:25:49.568Z,10.06
2017-04-05T10:26:59.830Z,10.23
2017-04-05T10:28:10.095Z,10.1
2017-04-05T10:29:20.394Z,10.06
2017-04-05T10:30:30.659Z,10.07
2017-04-05T10:31:40.928Z,10.02
2017-04-05T10:32:50.872Z,9.99
2017-04-05T10:34:01.124Z,9.95
2017-04-05T10:35:11.386Z,9.99
2017-04-05T10:36:21.337Z,9.97
2017-04-05T10:37:31.596Z,10.05
2017-04-05T10:38:41.860Z,9.97
2017-04-05T10:39:51.807Z,10.1
2017-04-05T10:41:01.792Z,10.1
2017-04-05T10:42:12.058Z,9.99
2017-04-05T10:43:22.320Z,10.02
2017-04-05T10:44:32.272Z,10.03
2017-04-05T10:45:42.256Z,9.82
2017-04-05T10:46:52.522Z,9.87
2017-04-05T10:48:02.784Z,9.91
2017-04-05T10:49:13.038Z,9.9
2017-04-05T10:50:23.298Z,10.09
2017-04-05T10:51:33.572Z,10.15
2017-04-05T10:52:43.831Z,10.2
2017-04-05T10:53:54.090Z,10.24
2017-04-05T10:55:04.349Z,10.27
2017-04-05T10:56:14.608Z,10.2
2017-04-05T10:57:24.582Z,10.21
2017-04-05T10:58:34.542Z,10.13
2017-04-05T10:59:44.822Z,9.99
2017-04-05T11:00:55.092Z,9.87
2017-04-05T11:02:05.356Z,9.88
2017-04-05T11:03:15.616Z,9.76
2017-04-05T11:04:25.879Z,9.8
2017-04-05T11:05:36.153Z,9.76
2017-04-05T11:06:46.107Z,9.66
2017-04-05T11:07:55.745Z,9.63
2017-04-05T11:09:06.012Z,9.52
2017-04-05T11:10:16.273Z,9.55
2017-04-05T11:11:26.538Z,9.33
2017-04-05T11:12:36.490Z,9.42
2017-04-05T11:13:46.439Z,9.36
2017-04-05T11:14:56.705Z,9.27
2017-04-05T11:16:06.969Z,9.34
2017-04-05T11:17:17.238Z,9.37
2017-04-05T11:18:27.507Z,9.3
2017-04-05T11:19:37.773Z,9.15
2017-04-05T11:20:48.036Z,9.05
2017-04-05T11:21:58.296Z,9.12
2017-04-05T11:23:08.557Z,9.24
2017-04-05T11:24:18.827Z,9.22
2017-04-05T11:25:29.093Z,9
2017-04-05T11:26:39.349Z,9
2017-04-05T11:27:49.607Z,9.16
2017-04-05T11:28:59.554Z,9.16
2017-04-05T11:30:09.823Z,9.42
2017-04-05T11:31:20.087Z,9.58
2017-04-05T11:32:30.038Z,9.74
2017-04-05T11:33:40.300Z,10.28
2017-04-05T11:34:50.245Z,10.65
2017-04-05T11:36:00.507Z,11.19
2017-04-05T11:37:10.771Z,11.43
2017-04-05T11:38:21.033Z,11.63
2017-04-05T11:39:30.999Z,11.78
2017-04-05T11:40:40.960Z,12.05
2017-04-05T11:41:50.911Z,12.44
2017-04-05T11:43:01.173Z,13.12
2017-04-05T11:44:11.434Z,13.26
2017-04-05T11:45:21.071Z,13.09
2017-04-05T11:46:31.340Z,13.09
2017-04-05T11:47:41.639Z,13.26
2017-04-05T11:48:52.163Z,12.48
2017-04-05T11:50:02.563Z,11.85
2017-04-05T11:51:12.518Z,11.3
2017-04-05T11:52:22.810Z,10.97
2017-04-05T11:53:32.765Z,10.38
2017-04-05T11:54:43.033Z,10.18
2017-04-05T11:55:53.298Z,9.87
2017-04-05T11:57:03.255Z,9.49
2017-04-05T11:58:12.890Z,9.26
2017-04-05T11:59:23.155Z,9.08
2017-04-05T12:00:33.422Z,8.74
2017-04-05T12:01:43.688Z,8.75
2017-04-05T12:02:53.954Z,8.77
2017-04-05T12:04:03.911Z,8.79
2017-04-05T12:05:14.176Z,8.86
2017-04-05T12:06:24.444Z,8.78
2017-04-05T12:07:34.187Z,8.79
2017-04-05T12:08:44.140Z,8.74
2017-04-05T12:09:54.403Z,8.97
2017-04-05T12:11:04.354Z,9.51
2017-04-05T12:12:14.301Z,9.8
2017-04-05T12:13:24.568Z,9.88
2017-04-05T12:14:34.518Z,10.1
2017-04-05T12:15:44.464Z,10.58
2017-04-05T12:16:54.723Z,10.49
2017-04-05T12:18:04.993Z,10.39
2017-04-05T12:19:15.259Z,10.9
2017-04-05T12:20:25.528Z,10.62
2017-04-05T12:21:35.483Z,10.13
2017-04-05T12:22:45.444Z,9.74
2017-04-05T12:23:55.708Z,9.31
2017-04-05T12:25:05.661Z,8.79
2017-04-05T12:26:15.628Z,8.79
2017-04-05T12:27:25.575Z,8.42
2017-04-05T12:28:35.209Z,8.35
2017-04-05T12:29:45.160Z,8.36
2017-04-05T12:30:55.104Z,8.27
2017-04-05T12:32:04.741Z,8.26
2017-04-05T12:33:15.003Z,8.17
2017-04-05T12:34:25.273Z,8.23
2017-04-05T12:35:35.533Z,8.23
2017-04-05T12:36:45.806Z,8.26
2017-04-05T12:37:55.751Z,8.26
2017-04-05T12:39:06.016Z,8.39
2017-04-05T12:40:16.281Z,8.34
2017-04-05T12:41:26.229Z,8.36
2017-04-05T12:44:53.878Z,8.21
2017-04-05T12:46:04.152Z,8.23
2017-04-05T12:47:14.417Z,8.21
2017-04-05T12:48:24.709Z,8.2
2017-04-05T12:49:34.663Z,8.26
2017-04-05T12:50:44.605Z,8.23
2017-04-05T12:51:54.863Z,8.09
2017-04-05T12:53:05.126Z,8.01
2017-04-05T12:54:15.383Z,8.11
2017-04-05T12:55:25.642Z,8.06
2017-04-05T12:56:35.594Z,7.93
2017-04-05T12:57:45.861Z,7.93
2017-04-05T12:58:55.811Z,7.91
2017-04-05T13:00:06.078Z,7.93
2017-04-05T13:01:16.336Z,7.96
2017-04-05T13:02:26.281Z,8.09
2017-04-05T13:03:36.553Z,8.09
2017-04-05T13:04:46.808Z,7.96
2017-04-05T13:05:56.756Z,7.96
2017-04-05T13:07:07.017Z,8.11
2017-04-05T13:08:17.273Z,8.13
2017-04-05T13:09:27.528Z,8.18
2017-04-05T13:10:37.160Z,8.23
2017-04-05T13:11:47.422Z,8.21
2017-04-05T13:12:57.990Z,8.31
2017-04-05T13:14:07.623Z,8.26
2017-04-05T13:15:17.574Z,8.35
2017-04-05T13:16:27.831Z,8.44
2017-04-05T13:17:37.787Z,8.39
2017-04-05T13:18:47.737Z,8.35
2017-04-05T13:19:58.001Z,8.39
2017-04-05T13:21:08.264Z,8.49
2017-04-05T13:22:18.217Z,8.54
2017-04-05T13:23:28.480Z,8.56
2017-04-05T13:24:38.743Z,8.66
2017-04-05T13:25:49.097Z,8.74
2017-04-05T13:26:59.360Z,8.75
2017-04-05T13:28:09.621Z,8.75
2017-04-05T13:29:20.087Z,8.64
2017-04-05T13:30:30.354Z,8.72
2017-04-05T13:31:40.615Z,8.87
2017-04-05T13:32:50.881Z,8.87
2017-04-05T13:34:00.834Z,9.03
2017-04-05T13:35:11.122Z,9.33
2017-04-05T13:36:21.384Z,9.34
2017-04-05T13:37:31.645Z,9.58
2017-04-05T13:38:41.619Z,9.73
2017-04-05T13:39:51.574Z,9.92
2017-04-05T13:41:01.834Z,10.38
2017-04-05T13:42:11.776Z,10.75
2017-04-05T13:43:22.039Z,10.61
2017-04-05T13:44:32.309Z,10.23
2017-04-05T13:45:41.946Z,9.99
2017-04-05T13:46:51.895Z,9.77
2017-04-05T13:48:01.847Z,9.39
2017-04-05T13:49:12.109Z,9.02
2017-04-05T13:50:22.375Z,8.44
2017-04-05T13:51:32.011Z,7.8
2017-04-05T13:52:42.278Z,7.59
2017-04-05T13:53:52.535Z,7.43
2017-04-05T13:55:02.481Z,7.36
2017-04-05T13:56:12.427Z,7.33
2017-04-05T13:57:22.696Z,7.28
2017-04-05T13:58:32.659Z,7.26
2017-04-05T13:59:42.289Z,7.19
2017-04-05T14:00:52.547Z,7.14
2017-04-05T14:02:02.811Z,6.96
2017-04-05T14:03:12.758Z,6.77
2017-04-05T14:04:22.724Z,6.93
2017-04-05T14:05:32.996Z,6.97
2017-04-05T14:06:42.631Z,6.74
2017-04-05T14:07:52.258Z,6.75
2017-04-05T14:09:02.523Z,6.72
2017-04-05T14:10:12.155Z,6.82
2017-04-05T14:11:22.415Z,6.75
2017-04-05T14:12:32.677Z,6.83
2017-04-05T14:13:42.631Z,6.9
2017-04-05T14:14:52.267Z,7.11
2017-04-05T14:16:02.208Z,7.28
2017-04-05T14:17:12.471Z,7.4
2017-04-05T14:18:22.725Z,7.61
2017-04-05T14:19:33.028Z,7.64
2017-04-05T14:20:43.297Z,7.67
2017-04-05T14:21:52.929Z,7.58
2017-04-05T14:23:03.185Z,7.66
2017-04-05T14:24:13.449Z,7.53
2017-04-05T14:25:23.714Z,7.55
2017-04-05T14:26:33.973Z,7.69
2017-04-05T14:27:44.231Z,7.67
2017-04-05T14:28:53.894Z,7.7
2017-04-05T14:30:04.159Z,7.98
2017-04-05T14:31:14.417Z,8.17
2017-04-05T14:32:24.681Z,8.23
2017-04-05T14:33:34.636Z,8.26
2017-04-05T14:34:44.580Z,8.36
2017-04-05T14:35:54.211Z,8.23
2017-04-05T14:37:04.471Z,8.36
2017-04-05T14:38:14.723Z,8.42
2017-04-05T14:39:24.987Z,8.45
2017-04-05T14:40:34.950Z,8.75
2017-04-05T14:41:44.892Z,8.79
2017-04-05T14:42:54.857Z,9
2017-04-05T14:44:05.116Z,9.26
2017-04-05T14:45:15.066Z,9.58
2017-04-05T14:46:25.328Z,9.77
2017-04-05T14:47:35.592Z,9.92
2017-04-05T14:48:45.537Z,10
2017-04-05T14:49:55.810Z,10.05
2017-04-05T14:51:06.072Z,9.94
2017-04-05T14:52:16.334Z,9.91
2017-04-05T14:53:26.600Z,9.66
2017-04-05T14:54:36.894Z,9.56
2017-04-05T14:55:47.157Z,9.66
2017-04-05T14:56:57.114Z,9.63
2017-04-05T14:58:07.371Z,9.66
2017-04-05T14:59:17.318Z,9.55
2017-04-05T15:00:27.581Z,9.45
2017-04-05T15:01:37.846Z,9.44
2017-04-05T15:02:48.109Z,9.37
2017-04-05T15:03:58.056Z,9.29
2017-04-05T15:05:08.001Z,9.63
2017-04-05T15:06:18.275Z,10.13
2017-04-05T15:07:28.536Z,10.55
2017-04-05T15:08:38.491Z,11.15
2017-04-05T15:09:48.755Z,11.77
2017-04-05T15:10:59.043Z,12.36
2017-04-05T15:12:09.015Z,12.54
2017-04-05T15:13:19.290Z,12.81
2017-04-05T15:14:29.552Z,13.26
2017-04-05T15:15:39.505Z,13.8
2017-04-05T15:16:49.767Z,13.86
2017-04-05T15:18:00.036Z,14.11
2017-04-05T15:19:10.302Z,13.86
2017-04-05T15:20:20.259Z,14.12
2017-04-05T15:21:30.526Z,14.82
2017-04-05T15:22:40.793Z,15.54
2017-04-05T15:23:50.750Z,16.16
2017-04-05T15:25:01.017Z,15.55
2017-04-05T15:26:10.979Z,15.83
2017-04-05T15:27:21.245Z,15.63
2017-04-05T15:28:31.518Z,15.05
2017-04-05T15:29:41.164Z,14.71
2017-04-05T15:30:51.435Z,14.74
2017-04-05T15:32:01.708Z,14.56
2017-04-05T15:33:11.987Z,14.45
2017-04-05T15:34:22.259Z,14.08
2017-04-05T15:35:32.527Z,14.05
2017-04-05T15:36:42.798Z,13.7
2017-04-05T15:37:52.754Z,13.49